Change the Weather History Date:

Sunday, February 2, 2014

  Actual Average Record
Temperature  
Mean Temperature 39 °F -  
Max Temperature 50 °F 42 °F 86 °F (2005)
Min Temperature 28 °F 26 °F 12 °F (2000)
Degree Days  
Heating Degree Days 26    
Moisture  
Dew Point 37 °F    
Average Humidity 97    
Maximum Humidity 100    
Minimum Humidity 87    
Precipitation  
Precipitation 0.52 in - - ()
Sea Level Pressure  
Sea Level Pressure 30.05 in    
Wind  
Wind Speed 7 mph (NNW)    
Max Wind Speed 13 mph    
Max Gust Speed 17 mph    
Visibility 5 miles    
Events Fog , Rain , Snow    
Averages and records for this station are not official NWS values.
T = Trace of Precipitation, MM = Missing Value Source: NWS Daily Summary

Daily Weather History Graph

Daily Weather History Graph

Search for Another Location

Airport or City:

Trip Planner

Search our weather history database for the weather conditions in past years. The results will help you decide how hot, cold, wet, or windy it might be!

Date:

Astronomy

Feb. 02, 2014 Rise Set
Actual Time 7:47 AM EST 6:08 PM EST
Civil Twilight 7:19 AM EST 6:36 PM EST
Nautical Twilight 6:48 AM EST 7:07 PM EST
Astronomical Twilight 6:17 AM EST 7:38 PM EST
Moon 9:17 AM EST (2/2) 9:47 PM EST (2/2)
Length of Visible Light 11h 16m
Length of Day
10h 21m
Waxing Crescent, 11% of the Moon is Illuminated
Feb 2
Waxing Crescent
Feb 6
First Quarter
Feb 14
Full
Feb 22
Last Quarter
Mar 1
New

Hourly Weather History & Observations

Time (EST) Temp. Windchill Dew Point Humidity Pressure Visibility Wind Dir Wind Speed Gust Speed Precip Events Conditions
12:13 AM 50.0 °F - 48.2 °F 94% 29.93 in 10.0 mi SSW 5.8 mph - N/A   Overcast
12:58 AM 50.4 °F - 48.0 °F 92% 29.93 in 10.0 mi South 5.8 mph - N/A   Overcast
1:58 AM 50.0 °F - 48.2 °F 94% 29.92 in 10.0 mi SSW 4.6 mph - N/A   Overcast
2:03 AM 50.0 °F - 48.2 °F 94% 29.91 in 10.0 mi South 5.8 mph - N/A   Overcast
2:28 AM 50.0 °F - 48.2 °F 94% 29.91 in 10.0 mi WSW 2.3 mph - N/A   Overcast
2:58 AM 48.4 °F - 48.0 °F 99% 29.91 in 6.0 mi WNW 2.3 mph - N/A   Overcast
3:02 AM 48.2 °F - 48.2 °F 100% 29.90 in 4.0 mi NW 3.5 mph - N/A Rain Light Rain
3:32 AM 48.2 °F - 48.2 °F 100% 29.91 in 2.5 mi West 2.3 mph - N/A Rain Rain
3:42 AM 48.2 °F - 48.2 °F 100% 29.90 in 1.5 mi Calm Calm - N/A Rain Rain
3:47 AM 48.2 °F - 48.2 °F 100% 29.90 in 1.2 mi Calm Calm - N/A Rain Rain
3:52 AM 48.2 °F - 48.2 °F 100% 29.90 in 1.2 mi WSW 2.3 mph - N/A Rain Rain
3:57 AM 48.2 °F - 48.2 °F 100% 29.91 in 1.0 mi West 2.3 mph - N/A Rain Light Rain
3:58 AM 48.2 °F - 48.2 °F 100% 29.92 in 1.0 mi West 2.3 mph - 0.08 in Rain Light Rain
4:03 AM 48.2 °F - 48.2 °F 100% 29.91 in 0.8 mi West 2.3 mph - N/A Rain Rain
4:08 AM 48.2 °F - 48.2 °F 100% 29.91 in 0.5 mi NW 1.2 mph - N/A Fog , Rain Light Rain
4:18 AM 48.2 °F - 48.2 °F 100% 29.90 in 0.8 mi NNW 6.9 mph - N/A Rain Rain
4:23 AM 46.4 °F 42.9 °F 46.4 °F 100% 29.91 in 1.8 mi WNW 6.9 mph - N/A Rain Light Rain
4:28 AM 46.4 °F 42.9 °F 46.4 °F 100% 29.91 in 7.0 mi WNW 6.9 mph - N/A Rain Light Rain
4:48 AM 44.6 °F 38.8 °F 44.6 °F 100% 29.92 in 8.0 mi NNW 11.5 mph - N/A Rain Light Rain
4:58 AM 44.1 °F 39.0 °F 44.1 °F 100% 29.94 in 8.0 mi North 9.2 mph - 0.10 in Rain Light Rain
5:43 AM 39.2 °F 33.0 °F 39.2 °F 100% 29.96 in 10.0 mi NNW 9.2 mph - N/A Rain Light Rain
5:48 AM 39.2 °F 32.5 °F 39.2 °F 100% 29.96 in 10.0 mi NW 10.4 mph - N/A Rain Light Rain
5:58 AM 38.7 °F 32.4 °F 38.7 °F 100% 29.98 in 9.0 mi NNW 9.2 mph - 0.04 in Rain Light Rain
6:13 AM 37.4 °F 30.3 °F 37.4 °F 100% 29.98 in 7.0 mi NNW 10.4 mph - N/A Rain Light Rain
6:23 AM 37.4 °F 30.3 °F 37.4 °F 100% 29.98 in 7.0 mi NNW 10.4 mph - N/A Rain Rain
6:58 AM 35.6 °F 28.0 °F 35.6 °F 100% 30.03 in 8.0 mi NW 10.4 mph - 0.06 in Rain Rain
7:23 AM 35.6 °F 29.2 °F 35.6 °F 100% 30.01 in 10.0 mi NNW 8.1 mph - N/A Rain Light Rain
7:38 AM 35.6 °F 29.2 °F 35.6 °F 100% 30.03 in 10.0 mi NNW 8.1 mph - N/A Rain Light Rain
7:58 AM 34.7 °F 29.6 °F 34.5 °F 99% 30.06 in 9.0 mi NNW 5.8 mph - 0.04 in Rain Light Rain
8:31 AM 33.8 °F 28.6 °F 33.8 °F 100% 30.03 in 4.0 mi North 5.8 mph - N/A   Overcast
8:58 AM 34.5 °F 27.9 °F 34.0 °F 98% 30.08 in 5.0 mi NNW 8.1 mph - 0.01 in   Overcast
9:23 AM 33.8 °F 25.8 °F 32.0 °F 93% 30.07 in 5.0 mi NNW 10.4 mph - N/A   Overcast
9:53 AM 33.8 °F 25.8 °F 32.0 °F 93% 30.10 in 3.0 mi NNW 10.4 mph - N/A   Overcast
9:58 AM 33.8 °F 27.0 °F 32.0 °F 93% 30.12 in 8.0 mi NNW 8.1 mph 17.3 mph N/A   Overcast
10:08 AM 32.0 °F 23.6 °F 32.0 °F 100% 30.09 in 2.0 mi NNW 10.4 mph - N/A   Overcast
10:58 AM 33.3 °F 26.4 °F 32.0 °F 95% 30.15 in 4.0 mi NW 8.1 mph - N/A   Overcast
11:23 AM 32.0 °F 23.0 °F 32.0 °F 100% 30.14 in 2.0 mi NNW 11.5 mph - N/A   Light Drizzle
11:38 AM 33.8 °F 25.8 °F 32.0 °F 93% 30.11 in 1.5 mi North 10.4 mph - N/A   Overcast
11:56 AM 32.0 °F 23.6 °F 32.0 °F 100% 30.13 in 1.5 mi NNW 10.4 mph - N/A   Overcast
11:59 AM 32.0 °F 23.0 °F 32.0 °F 100% 30.15 in 2.0 mi NNW 11.5 mph - N/A   Overcast
12:51 PM 32.0 °F 24.2 °F 32.0 °F 100% 30.12 in 3.0 mi NNW 9.2 mph - N/A   Light Drizzle
12:58 PM 33.1 °F 26.9 °F 32.4 °F 97% 30.14 in 3.0 mi NNW 6.9 mph - 0.00 in   Light Drizzle
1:06 PM 32.0 °F 24.2 °F 32.0 °F 100% 30.11 in 3.0 mi NNW 9.2 mph - N/A   Overcast
1:41 PM 32.0 °F 25.6 °F 32.0 °F 100% 30.08 in 10.0 mi North 6.9 mph - N/A   Overcast
1:58 PM 33.4 °F 28.1 °F 32.4 °F 96% 30.13 in 5.0 mi NNW 5.8 mph - 0.00 in   Overcast
2:13 PM 32.0 °F 27.5 °F 32.0 °F 100% 30.13 in 10.0 mi NW 4.6 mph - N/A   Overcast
2:33 PM 33.8 °F 28.6 °F 32.0 °F 93% 30.12 in 10.0 mi NNW 5.8 mph - N/A   Overcast
2:58 PM 34.0 °F 28.8 °F 31.3 °F 90% 30.14 in 10.0 mi NNW 5.8 mph - N/A   Overcast
3:13 PM 33.8 °F 26.4 °F 32.0 °F 93% 30.13 in 10.0 mi NNW 9.2 mph - N/A   Overcast
3:18 PM 33.8 °F 25.8 °F 32.0 °F 93% 30.13 in 10.0 mi NNW 10.4 mph - N/A   Overcast
3:23 PM 33.8 °F 25.8 °F 32.0 °F 93% 30.13 in 10.0 mi NNW 10.4 mph - N/A   Overcast
3:36 PM 32.0 °F 24.2 °F 32.0 °F 100% 30.12 in 10.0 mi NNW 9.2 mph - N/A   Light Drizzle
3:56 PM 33.4 °F 24.3 °F 30.6 °F 89% 30.15 in 10.0 mi NNW 12.7 mph - 0.00 in   Light Drizzle
4:55 PM 32.4 °F 24.0 °F 30.6 °F 93% 30.17 in 4.0 mi North 10.4 mph - 0.01 in Rain , Snow Light Rain
5:55 PM 31.3 °F 24.7 °F 30.0 °F 95% 30.16 in 7.0 mi North 6.9 mph - 0.03 in Rain , Snow Light Freezing Rain
6:55 PM 32.0 °F 23.6 °F 28.4 °F 87% 30.16 in 3.0 mi North 10.4 mph - 0.02 in Snow Light Snow
7:55 PM 30.2 °F 20.8 °F 28.9 °F 95% 30.20 in 2.5 mi North 11.5 mph - 0.01 in Snow Light Snow
8:28 PM 30.2 °F 20.8 °F 28.4 °F 93% 30.13 in 4.0 mi North 11.5 mph - N/A   Ice Pellets
8:57 PM 30.2 °F 20.8 °F 28.8 °F 94% 30.15 in 7.0 mi NNE 11.5 mph - 0.04 in   Ice Pellets
9:49 PM 30.2 °F 22.6 °F 28.4 °F 93% 30.13 in 4.0 mi NNE 8.1 mph - N/A Snow Light Snow
9:55 PM 30.0 °F 22.4 °F 28.2 °F 93% 30.16 in 4.0 mi North 8.1 mph - 0.06 in Snow Light Snow
10:47 PM 28.4 °F 18.5 °F 28.4 °F 100% 30.13 in 2.0 mi North 11.5 mph - N/A Snow Light Snow
10:58 PM 28.9 °F 18.6 °F 27.7 °F 95% 30.17 in 2.0 mi North 12.7 mph - 0.01 in Snow Light Snow
11:08 PM 28.4 °F 18.5 °F 28.4 °F 100% 30.15 in 1.8 mi North 11.5 mph - N/A Snow Light Snow
11:13 PM 28.4 °F 19.7 °F 28.4 °F 100% 30.15 in 1.5 mi North 9.2 mph - N/A Snow Light Snow
11:48 PM 28.4 °F 19.7 °F 26.6 °F 93% 30.13 in 1.0 mi North 9.2 mph - N/A Snow Light Snow
11:58 PM 28.4 °F 19.1 °F 27.3 °F 96% 30.17 in 1.0 mi North 10.4 mph - 0.01 in Snow Light Snow